Time;durP1;ratioP1;P1;durP2;ratioP2;P2;SDS_P1;SDS_P2;PMS_P1;PMS_P2;Temp;Humidity;BMP_temperature;BMP_pressure;BME280_temperature;BME280_humidity;BME280_pressure;Samples;Min_cycle;Max_cycle;Signal;HPM_P1;HPM_P2
2023/12/11 00:02:22;;;;;;;;;;;9.10;99.90;;;8.46;100.00;96863.91;4987375;28;1835;-67
2023/12/11 00:04:48;;;;;;;;;;;9.10;99.90;;;8.56;100.00;96877.25;4991938;28;1517;-66
2023/12/11 00:07:15;;;;;;;;;;;9.10;99.90;;;8.72;100.00;96879.97;4999941;28;1511;-67
2023/12/11 00:09:42;;;;;;;;;;;9.20;99.90;;;8.62;100.00;96884.72;4987353;28;1564;-67
2023/12/11 00:12:09;;;;;;;;;;;9.20;99.90;;;8.69;100.00;96882.69;4988585;28;1913;-66
2023/12/11 00:14:36;;;;;;;;;;;9.20;99.90;;;8.71;100.00;96880.84;4987302;28;1501;-66
2023/12/11 00:17:03;;;;;;;;;;;9.20;99.90;;;8.71;100.00;96893.78;4987360;28;1485;-67
2023/12/11 00:19:30;;;;;;;;;;;9.20;99.90;;;8.69;100.00;96870.59;4988516;28;2002;-67
2023/12/11 00:21:57;;;;;;;;;;;9.20;99.90;;;8.68;100.00;96878.44;4986487;28;1685;-65
2023/12/11 00:24:24;;;;;;;;;;;9.30;99.90;;;8.76;100.00;96878.91;4991708;28;2090;-67
2023/12/11 00:26:51;;;;;;;;;;;9.30;99.90;;;8.82;100.00;96888.13;4992229;28;1410;-67
2023/12/11 00:29:18;;;;;;;;;;;9.30;99.90;;;8.88;100.00;96882.69;4985149;28;1711;-67
2023/12/11 00:31:44;;;;;;;;;;;9.30;99.90;;;8.75;100.00;96877.22;4986722;28;1669;-67
2023/12/11 00:34:11;;;;;;;;;;;9.30;99.90;;;8.82;100.00;96893.31;4986798;28;1580;-66
2023/12/11 00:36:38;;;;;;;;;;;9.30;99.90;;;8.80;100.00;96893.38;4983322;28;1820;-67
2023/12/11 00:39:05;;;;;;;;;;;9.30;99.90;;;8.91;100.00;96892.88;4984538;28;1915;-67
2023/12/11 00:41:32;;;;;;;;;;;9.40;99.90;;;8.79;100.00;96882.19;4987255;28;1580;-65
2023/12/11 00:43:59;;;;;;;;;;;9.40;99.90;;;8.88;100.00;96887.84;4987664;28;1908;-67
2023/12/11 00:46:26;;;;;;;;;;;9.40;99.90;;;8.86;100.00;96879.31;4985407;28;1544;-67
2023/12/11 00:48:53;;;;;;;;;;;9.40;99.90;;;8.86;100.00;96889.69;4987070;28;1874;-67
2023/12/11 00:51:20;;;;;;;;;;;9.40;99.90;;;8.98;100.00;96884.75;4986752;28;1592;-67
2023/12/11 00:53:48;;;;;;;;;;;9.30;99.90;;;8.88;100.00;96887.84;4988626;28;1721;-67
2023/12/11 00:56:15;;;;;;;;;;;9.40;99.90;;;9.01;100.00;96886.38;4985230;28;1658;-66
2023/12/11 00:58:42;;;;;;;;;;;9.40;99.90;;;8.76;100.00;96871.16;4987357;28;1906;-67
2023/12/11 01:01:09;;;;;;;;;;;9.40;99.90;;;8.95;100.00;96877.13;4985469;28;1571;-66
2023/12/11 01:03:37;;;;;;;;;;;9.40;99.90;;;9.03;100.00;96871.59;4990511;28;1545;-66
2023/12/11 01:06:05;;;;;;;;;;;9.40;99.90;;;8.98;100.00;96870.97;4988423;28;1555;-66
2023/12/11 01:08:33;;;;;;;;;;;9.40;99.90;;;9.11;100.00;96861.72;4985150;28;1596;-67
2023/12/11 01:11:00;;;;;;;;;;;9.50;99.90;;;9.00;100.00;96861.38;4986748;28;1635;-67
2023/12/11 01:13:27;;;;;;;;;;;9.50;99.90;;;9.10;100.00;96859.19;4983652;28;1808;-66
2023/12/11 01:15:54;;;;;;;;;;;9.40;99.90;;;9.07;100.00;96862.75;4987126;28;1580;-67
2023/12/11 01:18:20;;;;;;;;;;;9.40;99.90;;;8.88;100.00;96861.97;4989789;28;1536;-66
2023/12/11 01:20:47;;;;;;;;;;;9.50;99.90;;;8.76;100.00;96860.81;4984376;28;1910;-66
2023/12/11 01:23:14;;;;;;;;;;;9.40;99.90;;;8.85;100.00;96862.97;4988600;28;1633;-67
2023/12/11 01:25:41;;;;;;;;;;;9.40;99.90;;;8.81;100.00;96858.84;4990070;28;1710;-66
2023/12/11 01:28:08;;;;;;;;;;;9.50;99.90;;;8.74;100.00;96849.69;4987865;28;1567;-66
2023/12/11 01:30:35;;;;;;;;;;;9.30;99.90;;;8.89;100.00;96874.00;4990556;28;1678;-67
2023/12/11 01:33:03;;;;;;;;;;;9.30;99.90;;;8.84;100.00;96861.28;4982851;28;1800;-66
2023/12/11 01:35:33;;;;;;;;;;;9.40;99.90;;;8.73;100.00;96859.19;4988724;28;1501;-66
2023/12/11 01:38:00;;;;;;;;;;;9.30;99.90;;;8.78;100.00;96848.59;4985478;28;1968;-66
2023/12/11 01:40:27;;;;;;;;;;;9.30;99.90;;;8.92;100.00;96846.22;4988961;28;1975;-66
2023/12/11 01:42:54;;;;;;;;;;;9.30;99.90;;;8.91;100.00;96844.53;4987749;28;1554;-65
2023/12/11 01:45:36;;;;;;;;;;;9.30;99.90;;;8.74;100.00;96824.66;4983108;28;1540;-67
2023/12/11 01:48:04;;;;;;;;;;;9.40;99.90;;;8.68;100.00;96829.28;4973067;28;1596;-67
2023/12/11 01:50:31;;;;;;;;;;;9.30;99.90;;;8.71;100.00;96818.75;4985614;28;1580;-67
2023/12/11 01:52:58;;;;;;;;;;;9.30;99.90;;;8.69;100.00;96813.69;4990014;28;1564;-66
2023/12/11 01:55:25;;;;;;;;;;;9.30;99.90;;;8.67;100.00;96825.84;4973051;28;1670;-66
2023/12/11 01:57:52;;;;;;;;;;;9.20;99.90;;;8.62;100.00;96830.41;4987116;28;1666;-66
2023/12/11 02:00:19;;;;;;;;;;;9.20;99.90;;;8.65;100.00;96834.59;4991576;28;1974;-66
2023/12/11 02:02:46;;;;;;;;;;;9.20;99.90;;;8.50;100.00;96815.44;4991339;28;1999;-67
2023/12/11 02:05:13;;;;;;;;;;;9.20;99.90;;;8.48;100.00;96832.78;4993486;28;1872;-66
2023/12/11 02:07:40;;;;;;;;;;;9.10;99.90;;;8.42;100.00;96833.91;4989453;28;1865;-66
2023/12/11 02:10:08;;;;;;;;;;;9.10;99.90;;;8.40;100.00;96838.31;4990007;28;1797;-66
2023/12/11 02:12:34;;;;;;;;;;;9.00;99.90;;;8.37;100.00;96841.00;4970788;28;1548;-65
2023/12/11 02:15:01;;;;;;;;;;;9.00;99.90;;;8.34;100.00;96835.97;4987544;28;1919;-65
2023/12/11 02:17:28;;;;;;;;;;;8.90;99.90;;;8.24;100.00;96845.06;4994615;28;1449;-66
2023/12/11 02:19:55;;;;;;;;;;;8.90;99.90;;;8.19;100.00;96847.84;4988078;28;1947;-66
2023/12/11 02:22:24;;;;;;;;;;;8.90;99.90;;;8.11;100.00;96842.16;4990480;28;1454;-65
2023/12/11 02:24:57;;;;;;;;;;;8.80;99.90;;;8.23;100.00;96853.69;4992201;28;1469;-67
2023/12/11 02:27:25;;;;;;;;;;;8.80;99.90;;;8.23;100.00;96843.38;4992430;28;1528;-67
2023/12/11 02:29:55;;;;;;;;;;;8.80;99.90;;;8.43;100.00;96845.09;4991583;28;1462;-66
2023/12/11 02:32:25;;;;;;;;;;;8.80;99.90;;;8.33;100.00;96844.63;4989462;28;1564;-66
2023/12/11 02:34:51;;;;;;;;;;;8.90;99.90;;;8.38;100.00;96845.25;4993571;28;1461;-67
2023/12/11 02:37:18;;;;;;;;;;;8.90;99.90;;;8.36;100.00;96840.16;4991758;28;1535;-66
2023/12/11 02:39:46;;;;;;;;;;;8.90;99.90;;;8.36;100.00;96842.75;4990285;28;1906;-66
2023/12/11 02:42:12;;;;;;;;;;;9.00;99.90;;;8.37;100.00;96839.25;4991245;28;1488;-67
2023/12/11 02:44:39;;;;;;;;;;;9.00;99.90;;;8.49;100.00;96842.22;4991945;28;1453;-68
2023/12/11 02:47:06;;;;;;;;;;;9.00;99.90;;;8.45;100.00;96840.69;4991459;28;1414;-66
2023/12/11 02:49:33;;;;;;;;;;;9.00;99.90;;;8.42;100.00;96833.06;4993485;28;1389;-68
2023/12/11 02:52:00;;;;;;;;;;;9.10;99.90;;;8.42;100.00;96836.50;4990644;28;1417;-67
2023/12/11 02:54:27;;;;;;;;;;;9.10;99.90;;;8.41;100.00;96839.13;4990534;28;2010;-66
2023/12/11 02:56:54;;;;;;;;;;;9.00;99.90;;;8.36;100.00;96827.22;4989131;28;1488;-67
2023/12/11 02:59:21;;;;;;;;;;;9.10;99.90;;;8.44;100.00;96845.03;4988703;28;1898;-66
2023/12/11 03:01:47;;;;;;;;;;;9.00;99.90;;;8.41;100.00;96834.81;4992260;28;1759;-67
2023/12/11 03:04:14;;;;;;;;;;;9.00;99.90;;;8.47;100.00;96833.69;4989431;28;1547;-66
2023/12/11 03:06:41;;;;;;;;;;;9.00;99.90;;;8.48;100.00;96827.59;4990139;28;1603;-66
2023/12/11 03:09:08;;;;;;;;;;;9.10;99.90;;;8.41;100.00;96806.34;4987186;28;1417;-66
2023/12/11 03:11:35;;;;;;;;;;;9.10;99.90;;;8.47;100.00;96807.84;4990856;28;1692;-66
2023/12/11 03:14:02;;;;;;;;;;;9.10;99.90;;;8.41;100.00;96798.59;4993890;28;1469;-65
2023/12/11 03:16:29;;;;;;;;;;;9.10;99.90;;;8.48;100.00;96791.41;4989100;28;1712;-67
2023/12/11 03:18:56;;;;;;;;;;;9.10;99.90;;;8.51;100.00;96801.63;4987845;28;1415;-66
2023/12/11 03:21:23;;;;;;;;;;;9.10;99.90;;;8.54;100.00;96791.94;4986475;28;1898;-66
2023/12/11 03:23:50;;;;;;;;;;;9.10;99.90;;;8.62;100.00;96785.56;4990545;28;1414;-67
2023/12/11 03:26:16;;;;;;;;;;;9.10;99.90;;;8.73;100.00;96778.13;4988340;28;1495;-65
2023/12/11 03:28:43;;;;;;;;;;;9.20;99.90;;;8.81;100.00;96777.78;4991050;28;1336;-66
2023/12/11 03:31:10;;;;;;;;;;;9.20;99.90;;;8.78;100.00;96774.44;4988611;28;1445;-67
2023/12/11 03:33:37;;;;;;;;;;;9.20;99.90;;;8.71;100.00;96770.47;4990959;28;1595;-66
2023/12/11 03:36:05;;;;;;;;;;;9.20;99.90;;;8.70;100.00;96766.19;4990548;28;1571;-67
2023/12/11 03:38:31;;;;;;;;;;;9.30;99.90;;;8.84;100.00;96775.88;4986996;28;1460;-66
2023/12/11 03:40:58;;;;;;;;;;;9.30;99.90;;;8.76;100.00;96768.50;4992784;28;1976;-67
2023/12/11 03:43:25;;;;;;;;;;;9.30;99.90;;;8.85;100.00;96774.13;4992868;28;2097;-67
2023/12/11 03:45:54;;;;;;;;;;;9.30;99.90;;;8.86;100.00;96770.63;4990996;28;1555;-66
2023/12/11 03:48:21;;;;;;;;;;;9.30;99.90;;;8.79;100.00;96773.50;4992304;28;1524;-66
2023/12/11 03:50:48;;;;;;;;;;;9.30;99.90;;;8.81;100.00;96786.38;4988017;28;1550;-67
2023/12/11 03:53:15;;;;;;;;;;;9.30;99.90;;;8.90;100.00;96801.47;4991418;28;1461;-66
2023/12/11 03:55:42;;;;;;;;;;;9.40;99.90;;;8.98;100.00;96796.72;4988579;28;1370;-66
2023/12/11 03:58:09;;;;;;;;;;;9.40;99.90;;;8.93;100.00;96814.25;4988706;28;1437;-66
2023/12/11 04:00:36;;;;;;;;;;;9.40;99.90;;;9.04;100.00;96805.97;4989575;28;1977;-65
2023/12/11 04:03:03;;;;;;;;;;;9.50;99.90;;;8.92;100.00;96812.59;4990833;28;1493;-65
2023/12/11 04:05:30;;;;;;;;;;;9.50;99.90;;;8.97;100.00;96797.66;4988621;28;1557;-65
2023/12/11 04:07:57;;;;;;;;;;;9.50;99.90;;;9.11;100.00;96804.75;4984904;28;1703;-65
2023/12/11 04:10:23;;;;;;;;;;;9.60;99.90;;;9.22;100.00;96830.13;4988885;28;1458;-66
2023/12/11 04:12:50;;;;;;;;;;;9.60;99.90;;;9.33;100.00;96816.66;4990826;28;1614;-65
2023/12/11 04:15:17;;;;;;;;;;;9.70;99.90;;;9.32;100.00;96835.69;4982309;28;1421;-65
2023/12/11 04:17:44;;;;;;;;;;;9.70;99.90;;;9.23;100.00;96808.47;4985655;28;1626;-65
2023/12/11 04:20:11;;;;;;;;;;;9.70;99.90;;;9.37;100.00;96800.88;4990557;28;1987;-66
2023/12/11 04:22:38;;;;;;;;;;;9.70;99.90;;;9.34;100.00;96803.59;4985324;28;1495;-65
2023/12/11 04:25:05;;;;;;;;;;;9.80;99.90;;;9.47;100.00;96793.47;4990745;28;1422;-65
2023/12/11 04:27:32;;;;;;;;;;;9.90;99.90;;;9.52;100.00;96794.06;4986967;28;1495;-66
2023/12/11 04:29:59;;;;;;;;;;;10.00;99.90;;;9.35;100.00;96769.03;4993941;28;1362;-65
2023/12/11 04:32:26;;;;;;;;;;;10.00;99.90;;;9.51;100.00;96804.50;4989706;28;1628;-65
2023/12/11 04:34:53;;;;;;;;;;;10.00;99.90;;;9.46;100.00;96781.44;4988891;28;1445;-66
2023/12/11 04:37:19;;;;;;;;;;;10.00;99.90;;;9.48;100.00;96795.16;4989048;28;1378;-65
2023/12/11 04:39:46;;;;;;;;;;;9.90;99.90;;;9.57;100.00;96773.13;4990497;28;1985;-65
2023/12/11 04:42:13;;;;;;;;;;;10.00;99.90;;;9.46;100.00;96763.28;4991734;28;1548;-65
2023/12/11 04:44:40;;;;;;;;;;;10.00;99.90;;;9.40;100.00;96776.56;4992042;28;1471;-64
2023/12/11 04:47:07;;;;;;;;;;;10.00;99.90;;;9.55;100.00;96787.91;4989376;28;1554;-64
2023/12/11 04:49:34;;;;;;;;;;;10.00;99.90;;;9.49;100.00;96778.69;4990611;28;1525;-65
2023/12/11 04:52:01;;;;;;;;;;;10.00;99.90;;;9.51;100.00;96776.00;4984471;28;1598;-65
2023/12/11 04:54:28;;;;;;;;;;;10.00;99.90;;;9.53;100.00;96777.59;4989435;28;1609;-66
2023/12/11 04:56:55;;;;;;;;;;;10.00;99.90;;;9.58;100.00;96770.47;4994286;28;1389;-66
2023/12/11 04:59:21;;;;;;;;;;;10.00;99.90;;;9.55;100.00;96762.00;4985210;28;1374;-65
2023/12/11 05:01:48;;;;;;;;;;;10.00;99.90;;;9.53;100.00;96756.88;4989809;28;2058;-64
2023/12/11 05:04:15;;;;;;;;;;;10.00;99.90;;;9.59;100.00;96756.56;4991147;28;1469;-65
2023/12/11 05:06:43;;;;;;;;;;;10.00;99.90;;;9.61;100.00;96751.31;4990311;28;1449;-66
2023/12/11 05:09:11;;;;;;;;;;;10.00;99.90;;;9.53;100.00;96746.50;4989417;28;1477;-65
2023/12/11 05:11:38;;;;;;;;;;;10.00;99.90;;;9.48;100.00;96724.38;4985712;28;1463;-66
2023/12/11 05:14:05;;;;;;;;;;;10.10;99.90;;;9.50;100.00;96727.72;4986019;28;1558;-63
2023/12/11 05:16:32;;;;;;;;;;;10.00;99.90;;;9.52;100.00;96724.13;4989142;28;1548;-65
2023/12/11 05:19:03;;;;;;;;;;;10.00;99.90;;;9.70;100.00;96734.47;4985896;28;1597;-65
2023/12/11 05:21:30;;;;;;;;;;;10.10;99.90;;;9.65;100.00;96739.88;4989216;28;1898;-65
2023/12/11 05:23:57;;;;;;;;;;;10.10;99.90;;;9.47;100.00;96723.53;4988375;28;1512;-65
2023/12/11 05:26:24;;;;;;;;;;;10.00;99.90;;;9.50;100.00;96727.72;4986179;28;1422;-66
2023/12/11 05:28:51;;;;;;;;;;;10.00;99.90;;;9.62;100.00;96742.63;4986619;28;1514;-66
2023/12/11 05:31:18;;;;;;;;;;;10.00;99.90;;;9.52;100.00;96721.53;4990408;28;1597;-68
2023/12/11 05:33:45;;;;;;;;;;;10.00;99.90;;;9.53;100.00;96733.56;4987138;28;1492;-65
2023/12/11 05:36:12;;;;;;;;;;;10.00;99.90;;;9.65;100.00;96724.34;4985912;28;1469;-66
2023/12/11 05:38:38;;;;;;;;;;;10.10;99.90;;;9.41;100.00;96727.25;4990091;28;1409;-65
2023/12/11 05:41:05;;;;;;;;;;;10.10;99.90;;;9.45;100.00;96740.09;4987333;28;1978;-65
2023/12/11 05:43:32;;;;;;;;;;;10.00;99.90;;;9.51;100.00;96744.94;4985226;28;1512;-65
2023/12/11 05:45:59;;;;;;;;;;;10.00;99.90;;;9.35;100.00;96731.94;4984597;28;1984;-66
2023/12/11 05:48:26;;;;;;;;;;;10.00;99.90;;;9.42;100.00;96754.84;4987265;28;1584;-65
2023/12/11 05:50:53;;;;;;;;;;;10.00;99.90;;;9.45;100.00;96735.72;4985647;28;2042;-64
2023/12/11 05:53:20;;;;;;;;;;;10.00;99.90;;;9.41;100.00;96736.78;4988268;28;1480;-67
2023/12/11 05:55:47;;;;;;;;;;;10.00;99.90;;;9.29;100.00;96730.50;4989541;28;1468;-65
2023/12/11 05:58:14;;;;;;;;;;;9.90;99.90;;;9.43;100.00;96742.75;4986635;28;1524;-65
2023/12/11 06:00:41;;;;;;;;;;;9.90;99.90;;;9.35;100.00;96737.09;4985196;28;1990;-64
2023/12/11 06:03:08;;;;;;;;;;;9.90;99.90;;;9.39;100.00;96743.81;4985662;28;1409;-65
2023/12/11 06:05:35;;;;;;;;;;;9.80;99.90;;;9.32;100.00;96734.69;4989462;28;1371;-66
2023/12/11 06:08:02;;;;;;;;;;;9.80;99.90;;;9.30;100.00;96733.91;4988321;28;1537;-65
2023/12/11 06:10:29;;;;;;;;;;;9.80;99.90;;;9.27;100.00;96740.09;4981570;28;1492;-64
2023/12/11 06:12:56;;;;;;;;;;;9.80;99.90;;;9.14;100.00;96749.38;4985869;28;1526;-66
2023/12/11 06:15:23;;;;;;;;;;;9.80;99.90;;;9.10;100.00;96750.44;4987435;28;1117;-65
2023/12/11 06:17:50;;;;;;;;;;;9.70;99.90;;;9.08;100.00;96747.97;4983754;28;1727;-65
2023/12/11 06:20:17;;;;;;;;;;;9.80;99.90;;;9.06;100.00;96764.50;4989925;28;1981;-66
2023/12/11 06:22:47;;;;;;;;;;;9.70;99.90;;;9.12;100.00;96741.72;4989542;28;1288;-65
2023/12/11 06:25:13;;;;;;;;;;;9.70;99.90;;;9.21;100.00;96763.69;4986719;28;1248;-64
2023/12/11 06:27:40;;;;;;;;;;;9.70;99.90;;;9.28;100.00;96744.34;4994905;28;1066;-65
2023/12/11 06:30:08;;;;;;;;;;;9.80;99.90;;;9.29;100.00;96730.50;4983689;28;1117;-65
2023/12/11 06:32:35;;;;;;;;;;;9.80;99.90;;;9.07;100.00;96707.44;4979618;28;1372;-65
2023/12/11 06:35:02;;;;;;;;;;;9.70;99.90;;;9.04;100.00;96710.19;4985032;28;1121;-67
2023/12/11 06:37:32;;;;;;;;;;;9.60;99.90;;;9.05;100.00;96716.19;4992389;28;1797;-65
2023/12/11 06:39:59;;;;;;;;;;;9.60;99.90;;;9.18;100.00;96719.84;4994301;28;1249;-66
2023/12/11 06:42:26;;;;;;;;;;;9.70;99.90;;;9.17;100.00;96698.31;4990303;28;1934;-66
2023/12/11 06:44:53;;;;;;;;;;;9.70;99.90;;;9.12;100.00;96694.25;4994554;28;1101;-65
2023/12/11 06:47:20;;;;;;;;;;;9.70;99.90;;;9.11;100.00;96705.53;4990254;28;1131;-66
2023/12/11 06:49:47;;;;;;;;;;;9.60;99.90;;;9.20;100.00;96708.50;4989281;28;1105;-66
2023/12/11 06:52:15;;;;;;;;;;;9.60;99.90;;;9.21;100.00;96702.41;4987029;28;1352;-65
2023/12/11 06:54:43;;;;;;;;;;;9.70;99.90;;;9.13;100.00;96706.31;4992822;28;1142;-66
2023/12/11 06:57:10;;;;;;;;;;;9.60;99.90;;;9.20;100.00;96699.91;4977062;28;1106;-65
2023/12/11 06:59:36;;;;;;;;;;;9.70;99.90;;;9.09;100.00;96705.59;4988519;28;1277;-66
2023/12/11 07:02:04;;;;;;;;;;;9.70;99.90;;;9.25;100.00;96712.59;4993663;28;1963;-65
2023/12/11 07:04:31;;;;;;;;;;;9.70;99.90;;;9.20;100.00;96692.97;4977738;28;1217;-65
2023/12/11 07:06:58;;;;;;;;;;;9.70;99.90;;;9.12;100.00;96683.91;4991829;28;1292;-64
2023/12/11 07:09:27;;;;;;;;;;;9.70;99.90;;;9.10;100.00;96694.34;4993197;28;1380;-67
2023/12/11 07:11:54;;;;;;;;;;;9.70;99.90;;;9.03;100.00;96695.56;4994903;28;1415;-66
2023/12/11 07:14:22;;;;;;;;;;;9.60;99.90;;;9.14;100.00;96705.38;4987486;28;1102;-65
2023/12/11 07:16:50;;;;;;;;;;;9.60;99.90;;;9.27;100.00;96714.19;4994162;28;1236;-65
2023/12/11 07:19:19;;;;;;;;;;;9.60;99.90;;;9.12;100.00;96710.66;4995327;28;1077;-66
2023/12/11 07:21:46;;;;;;;;;;;9.60;99.90;;;9.13;100.00;96717.50;4989588;28;1986;-65
2023/12/11 07:24:13;;;;;;;;;;;9.50;99.90;;;9.06;100.00;96716.13;4982045;28;1097;-65
2023/12/11 07:26:40;;;;;;;;;;;9.60;99.90;;;8.96;100.00;96738.19;4993339;28;1237;-66
2023/12/11 07:29:09;;;;;;;;;;;9.50;99.90;;;8.93;100.00;96720.25;4993552;28;1042;-65
2023/12/11 07:31:36;;;;;;;;;;;9.60;99.90;;;9.05;100.00;96719.63;4991961;28;1339;-65
2023/12/11 07:34:03;;;;;;;;;;;9.60;99.90;;;8.95;100.00;96721.00;4988199;28;1090;-64
2023/12/11 07:36:30;;;;;;;;;;;9.50;99.90;;;8.90;100.00;96707.47;4990648;28;974;-67
2023/12/11 07:38:57;;;;;;;;;;;9.50;99.90;;;9.06;100.00;96716.13;4991449;28;1213;-66
2023/12/11 07:41:24;;;;;;;;;;;9.50;99.90;;;8.79;100.00;96716.56;4996060;28;1906;-65
2023/12/11 07:43:50;;;;;;;;;;;9.40;99.90;;;8.71;100.00;96707.50;4989504;28;1972;-65
2023/12/11 07:46:18;;;;;;;;;;;9.40;99.90;;;8.69;100.00;96702.44;4991375;28;1006;-65
2023/12/11 07:48:46;;;;;;;;;;;9.40;99.90;;;8.73;100.00;96701.34;4989049;28;1043;-65
2023/12/11 07:51:24;;;;;;;;;;;9.40;99.90;;;8.70;100.00;96704.09;4984645;28;994;-66
2023/12/11 07:53:51;;;;;;;;;;;9.30;99.90;;;8.79;100.00;96716.56;4988021;28;1363;-67
2023/12/11 07:56:22;;;;;;;;;;;9.30;99.90;;;8.72;100.00;96724.72;4996724;28;1241;-67
2023/12/11 07:58:50;;;;;;;;;;;9.30;99.90;;;8.79;100.00;96716.56;4990489;28;1719;-68
2023/12/11 08:01:17;;;;;;;;;;;9.30;99.90;;;8.94;100.00;96729.66;4989735;28;1979;-68
2023/12/11 08:03:44;;;;;;;;;;;9.30;99.90;;;9.09;100.00;96728.09;4990258;28;1359;-68
2023/12/11 08:06:12;;;;;;;;;;;9.40;99.90;;;9.12;100.00;96722.72;4992165;28;1140;-67
2023/12/11 08:08:45;;;;;;;;;;;9.50;99.90;;;9.10;100.00;96725.44;4990737;28;1118;-67
2023/12/11 08:11:28;;;;;;;;;;;9.50;99.90;;;9.14;100.00;96733.84;4990888;28;1151;-68
2023/12/11 08:13:55;;;;;;;;;;;9.60;99.90;;;9.13;100.00;96716.66;4993268;28;1433;-65
2023/12/11 08:16:23;;;;;;;;;;;9.60;99.90;;;9.19;100.00;96721.50;4993654;28;1174;-67
2023/12/11 08:18:50;;;;;;;;;;;9.60;99.90;;;9.06;100.00;96713.53;4989002;28;1851;-67
2023/12/11 08:21:18;;;;;;;;;;;9.60;99.90;;;9.15;100.00;96700.13;4989845;28;1992;-68
2023/12/11 08:23:45;;;;;;;;;;;9.70;99.90;;;9.37;100.00;96709.38;4989339;28;1819;-69
2023/12/11 08:26:17;;;;;;;;;;;9.70;99.90;;;9.48;100.00;96709.66;4991970;28;1156;-68
2023/12/11 08:28:44;;;;;;;;;;;9.80;99.90;;;9.46;100.00;96716.66;4993676;28;1158;-67
2023/12/11 08:31:11;;;;;;;;;;;9.90;99.90;;;9.36;100.00;96703.38;4978016;28;1404;-63
2023/12/11 08:33:38;;;;;;;;;;;9.90;99.90;;;9.50;100.00;96700.06;4970937;28;1269;-67
2023/12/11 08:36:06;;;;;;;;;;;9.90;99.90;;;9.45;100.00;96704.66;4987343;28;1117;-68
2023/12/11 08:38:33;;;;;;;;;;;10.00;99.90;;;9.64;100.00;96713.13;4989616;28;2089;-67
2023/12/11 08:41:00;;;;;;;;;;;10.00;99.90;;;9.39;100.00;96703.19;4989717;28;1911;-67
2023/12/11 08:43:26;;;;;;;;;;;10.00;99.90;;;9.57;100.00;96713.53;4984162;28;1273;-67
2023/12/11 08:45:53;;;;;;;;;;;10.00;99.90;;;9.59;100.00;96722.88;4991826;28;1276;-66
2023/12/11 08:48:20;;;;;;;;;;;10.00;99.90;;;9.67;100.00;96713.88;4996755;28;1352;-67
2023/12/11 08:50:52;;;;;;;;;;;10.00;99.90;;;9.58;100.00;96710.88;4988021;28;1121;-67
2023/12/11 08:53:20;;;;;;;;;;;10.10;99.90;;;9.68;100.00;96702.59;4991997;28;1292;-67
2023/12/11 08:55:47;;;;;;;;;;;10.20;99.90;;;9.73;100.00;96709.22;4988390;28;1150;-67
2023/12/11 08:58:14;;;;;;;;;;;10.10;99.90;;;9.73;100.00;96698.84;4989860;28;1689;-67
2023/12/11 09:00:42;;;;;;;;;;;10.20;99.90;;;9.98;100.00;96684.56;4988992;28;1121;-67
2023/12/11 09:03:09;;;;;;;;;;;10.20;99.90;;;10.00;100.00;96699.13;4988543;28;1977;-68
2023/12/11 09:05:39;;;;;;;;;;;10.20;99.90;;;9.95;100.00;96693.34;4989917;28;1080;-68
2023/12/11 09:08:06;;;;;;;;;;;10.20;99.90;;;9.93;100.00;96700.38;4986071;28;1157;-67
2023/12/11 09:10:35;;;;;;;;;;;10.20;99.90;;;9.80;100.00;96697.59;4993429;28;1165;-65
2023/12/11 09:13:02;;;;;;;;;;;10.20;99.90;;;9.91;100.00;96697.03;4991751;28;1402;-67
2023/12/11 09:15:29;;;;;;;;;;;10.20;99.90;;;9.81;100.00;96709.66;4992359;28;1556;-67
2023/12/11 09:17:56;;;;;;;;;;;10.20;99.90;;;9.91;100.00;96711.75;4986700;28;1244;-67
2023/12/11 09:20:23;;;;;;;;;;;10.20;99.90;;;9.94;100.00;96693.41;4986592;28;1647;-67
2023/12/11 09:22:50;;;;;;;;;;;10.30;99.90;;;9.77;100.00;96695.16;4987526;28;1934;-67
2023/12/11 09:25:17;;;;;;;;;;;10.30;99.90;;;9.74;100.00;96689.31;4988074;28;1118;-68
2023/12/11 09:27:44;;;;;;;;;;;10.20;99.90;;;9.77;100.00;96721.09;4990614;28;1109;-67
2023/12/11 09:30:14;;;;;;;;;;;10.20;99.90;;;9.86;100.00;96717.19;4990096;28;1074;-67
2023/12/11 09:32:41;;;;;;;;;;;10.30;99.90;;;9.83;100.00;96719.94;4991174;28;1293;-68
2023/12/11 09:35:10;;;;;;;;;;;10.30;99.90;;;9.92;100.00;96718.59;4991553;28;1203;-68
2023/12/11 09:37:37;;;;;;;;;;;10.30;99.90;;;9.84;100.00;96701.69;4991494;28;1034;-68
2023/12/11 09:40:05;;;;;;;;;;;10.40;99.90;;;10.27;100.00;96701.97;4990057;28;1112;-66
2023/12/11 09:42:34;;;;;;;;;;;10.50;99.90;;;10.07;100.00;96699.63;4972861;28;1958;-67
2023/12/11 09:45:01;;;;;;;;;;;10.50;99.90;;;10.08;100.00;96692.66;4994416;28;1021;-66
2023/12/11 09:47:34;;;;;;;;;;;10.60;99.90;;;10.19;100.00;96675.59;4992713;28;1086;-67
2023/12/11 09:50:02;;;;;;;;;;;10.60;99.90;;;10.18;100.00;96686.06;4984733;28;967;-67
2023/12/11 09:52:29;;;;;;;;;;;10.60;99.90;;;10.31;100.00;96688.84;4991593;28;1237;-68
2023/12/11 09:54:56;;;;;;;;;;;10.70;99.90;;;10.41;100.00;96679.63;4989082;28;1073;-66
2023/12/11 09:57:24;;;;;;;;;;;10.80;99.90;;;10.38;100.00;96665.09;4990219;28;1768;-67
2023/12/11 09:59:52;;;;;;;;;;;10.80;99.90;;;10.42;100.00;96671.78;4991113;28;1066;-67
2023/12/11 10:02:18;;;;;;;;;;;10.90;99.90;;;10.45;100.00;96661.22;4981987;28;1983;-68
2023/12/11 10:05:09;;;;;;;;;;;10.80;99.90;;;10.34;100.00;96696.47;4986003;28;1096;-68
2023/12/11 10:07:42;;;;;;;;;;;10.80;99.90;;;10.25;100.00;96656.28;4987802;28;1089;-68
2023/12/11 10:10:26;;;;;;;;;;;10.80;99.90;;;10.37;100.00;96686.75;4982569;28;1456;-68
2023/12/11 10:12:54;;;;;;;;;;;10.80;99.90;;;10.26;100.00;96666.56;4986547;28;1348;-68
2023/12/11 10:15:21;;;;;;;;;;;10.70;99.90;;;10.17;100.00;96692.16;4990605;28;1137;-67
2023/12/11 10:18:08;;;;;;;;;;;10.70;99.90;;;10.26;100.00;96691.66;4996056;28;1372;-68
2023/12/11 10:20:37;;;;;;;;;;;10.70;99.90;;;10.07;100.00;96657.31;4994411;28;1462;-68
2023/12/11 10:23:15;;;;;;;;;;;10.80;99.90;;;10.12;100.00;96686.41;4994893;28;1910;-66
2023/12/11 10:25:45;;;;;;;;;;;10.70;99.90;;;10.13;100.00;96685.50;4990880;28;1569;-68
2023/12/11 10:28:15;;;;;;;;;;;10.60;99.90;;;10.19;100.00;96678.19;4988654;28;1372;-67
2023/12/11 10:30:49;;;;;;;;;;;10.70;99.90;;;10.30;100.00;96685.41;4996032;28;1336;-67
2023/12/11 10:33:21;;;;;;;;;;;10.70;99.90;;;10.26;100.00;96676.94;4989826;28;1525;-68
2023/12/11 10:35:48;;;;;;;;;;;10.70;99.90;;;10.27;100.00;96681.22;4981283;28;1289;-67
2023/12/11 10:38:25;;;;;;;;;;;10.70;99.90;;;10.39;100.00;96681.47;4991992;28;1604;-68
2023/12/11 10:40:53;;;;;;;;;;;10.70;99.90;;;10.31;100.00;96681.91;4990275;28;1459;-67
2023/12/11 10:43:20;;;;;;;;;;;10.70;99.90;;;10.36;100.00;96677.31;4987980;28;1906;-68
2023/12/11 10:45:47;;;;;;;;;;;10.80;99.90;;;10.34;100.00;96689.50;4985589;28;1249;-68
2023/12/11 10:48:19;;;;;;;;;;;10.70;99.90;;;10.41;100.00;96664.06;4993936;28;1446;-67
2023/12/11 10:50:47;;;;;;;;;;;10.80;99.90;;;10.21;100.00;96691.91;4993736;28;1163;-67
2023/12/11 10:53:15;;;;;;;;;;;10.80;99.90;;;10.42;100.00;96673.50;4989029;28;1466;-66
2023/12/11 10:55:43;;;;;;;;;;;10.90;99.90;;;10.38;100.00;96678.06;4991154;28;1130;-66
2023/12/11 10:58:10;;;;;;;;;;;10.90;99.90;;;10.38;100.00;96685.00;4989557;28;1152;-68
2023/12/11 11:00:37;;;;;;;;;;;10.90;99.90;;;10.38;100.00;96680.66;4974150;28;1293;-67
2023/12/11 11:03:07;;;;;;;;;;;10.80;99.90;;;10.65;100.00;96660.09;4992424;28;1977;-67
2023/12/11 11:05:34;;;;;;;;;;;10.80;99.90;;;10.51;100.00;96675.59;4975740;28;1070;-68
2023/12/11 11:08:13;;;;;;;;;;;10.80;99.90;;;10.55;100.00;96679.69;4990799;28;1265;-67
2023/12/11 11:10:51;;;;;;;;;;;10.90;99.90;;;10.52;100.00;96682.47;4984980;28;1110;-68
2023/12/11 11:13:26;;;;;;;;;;;10.90;99.90;;;10.52;100.00;96697.19;4978033;28;1445;-68
2023/12/11 11:15:54;;;;;;;;;;;10.80;99.90;;;10.45;100.00;96674.19;4985895;28;1085;-67
2023/12/11 11:18:21;;;;;;;;;;;10.80;99.90;;;10.46;100.00;96691.41;4997104;28;1181;-68
2023/12/11 11:21:11;;;;;;;;;;;10.80;99.90;;;10.62;100.00;96687.94;4993131;28;1412;-67
2023/12/11 11:23:42;;;;;;;;;;;10.80;99.90;;;10.54;100.00;96706.56;4997173;28;1911;-67
2023/12/11 11:26:35;;;;;;;;;;;10.90;99.90;;;10.52;100.00;96692.84;4996374;28;1109;-68
2023/12/11 11:29:03;;;;;;;;;;;10.90;99.90;;;10.75;100.00;96683.75;4988819;28;1090;-68
2023/12/11 11:31:51;;;;;;;;;;;11.00;99.90;;;10.93;100.00;96689.63;4990396;28;1443;-67
2023/12/11 11:34:40;;;;;;;;;;;11.00;99.90;;;10.71;100.00;96679.63;4988055;28;1304;-68